sensor_id;sensor_type;location;lat;lon;timestamp;P1;durP1;ratioP1;P2;durP2;ratioP2
16760;SDS011;8498;52.516;13.790;2024-03-25T00:03:33;4.30;;;2.70;;
16760;SDS011;8498;52.516;13.790;2024-03-25T00:08:54;3.80;;;2.93;;
16760;SDS011;8498;52.516;13.790;2024-03-25T00:14:15;5.43;;;3.13;;
16760;SDS011;8498;52.516;13.790;2024-03-25T00:19:36;4.07;;;3.27;;
16760;SDS011;8498;52.516;13.790;2024-03-25T00:24:58;4.77;;;3.00;;
16760;SDS011;8498;52.516;13.790;2024-03-25T00:30:19;4.20;;;3.10;;
16760;SDS011;8498;52.516;13.790;2024-03-25T00:35:41;5.77;;;3.80;;
16760;SDS011;8498;52.516;13.790;2024-03-25T00:41:02;4.57;;;3.30;;
16760;SDS011;8498;52.516;13.790;2024-03-25T00:46:23;4.07;;;3.30;;
16760;SDS011;8498;52.516;13.790;2024-03-25T00:51:44;5.80;;;3.77;;
16760;SDS011;8498;52.516;13.790;2024-03-25T00:57:05;5.87;;;3.47;;
16760;SDS011;8498;52.516;13.790;2024-03-25T01:02:27;4.77;;;3.67;;
16760;SDS011;8498;52.516;13.790;2024-03-25T01:07:49;5.20;;;3.70;;
16760;SDS011;8498;52.516;13.790;2024-03-25T01:13:10;7.20;;;3.27;;
16760;SDS011;8498;52.516;13.790;2024-03-25T01:18:31;7.33;;;3.57;;
16760;SDS011;8498;52.516;13.790;2024-03-25T01:23:53;5.07;;;3.90;;
16760;SDS011;8498;52.516;13.790;2024-03-25T01:29:14;4.80;;;3.20;;
16760;SDS011;8498;52.516;13.790;2024-03-25T01:34:35;5.87;;;3.70;;
16760;SDS011;8498;52.516;13.790;2024-03-25T01:39:56;4.73;;;3.00;;
16760;SDS011;8498;52.516;13.790;2024-03-25T01:45:18;4.70;;;2.60;;
16760;SDS011;8498;52.516;13.790;2024-03-25T01:50:41;3.60;;;2.90;;
16760;SDS011;8498;52.516;13.790;2024-03-25T01:56:03;5.40;;;3.23;;
16760;SDS011;8498;52.516;13.790;2024-03-25T02:01:26;4.37;;;3.40;;
16760;SDS011;8498;52.516;13.790;2024-03-25T02:06:48;4.77;;;3.53;;
16760;SDS011;8498;52.516;13.790;2024-03-25T02:12:10;6.07;;;3.63;;
16760;SDS011;8498;52.516;13.790;2024-03-25T02:17:31;8.33;;;4.30;;
16760;SDS011;8498;52.516;13.790;2024-03-25T02:22:52;6.33;;;4.07;;
16760;SDS011;8498;52.516;13.790;2024-03-25T02:28:14;7.30;;;3.70;;
16760;SDS011;8498;52.516;13.790;2024-03-25T02:33:36;8.10;;;4.07;;
16760;SDS011;8498;52.516;13.790;2024-03-25T02:38:58;8.20;;;4.83;;
16760;SDS011;8498;52.516;13.790;2024-03-25T02:44:20;8.77;;;5.00;;
16760;SDS011;8498;52.516;13.790;2024-03-25T02:49:43;7.60;;;4.27;;
16760;SDS011;8498;52.516;13.790;2024-03-25T02:55:04;10.63;;;5.00;;
16760;SDS011;8498;52.516;13.790;2024-03-25T03:00:26;8.33;;;4.17;;
16760;SDS011;8498;52.516;13.790;2024-03-25T03:05:47;5.63;;;3.50;;
16760;SDS011;8498;52.516;13.790;2024-03-25T03:11:09;5.27;;;3.33;;
16760;SDS011;8498;52.516;13.790;2024-03-25T03:16:30;4.97;;;2.83;;
16760;SDS011;8498;52.516;13.790;2024-03-25T03:21:51;3.97;;;2.40;;
16760;SDS011;8498;52.516;13.790;2024-03-25T03:27:11;2.50;;;2.30;;
16760;SDS011;8498;52.516;13.790;2024-03-25T03:32:33;2.17;;;1.97;;
16760;SDS011;8498;52.516;13.790;2024-03-25T03:37:54;3.00;;;2.07;;
16760;SDS011;8498;52.516;13.790;2024-03-25T03:43:15;2.07;;;1.87;;
16760;SDS011;8498;52.516;13.790;2024-03-25T03:48:36;2.57;;;2.30;;
16760;SDS011;8498;52.516;13.790;2024-03-25T03:53:58;2.63;;;2.13;;
16760;SDS011;8498;52.516;13.790;2024-03-25T03:59:20;6.47;;;1.90;;
16760;SDS011;8498;52.516;13.790;2024-03-25T04:04:41;4.03;;;2.47;;
16760;SDS011;8498;52.516;13.790;2024-03-25T04:10:02;2.87;;;2.57;;
16760;SDS011;8498;52.516;13.790;2024-03-25T04:15:24;3.87;;;2.50;;
16760;SDS011;8498;52.516;13.790;2024-03-25T04:20:46;5.70;;;2.60;;
16760;SDS011;8498;52.516;13.790;2024-03-25T04:26:08;3.07;;;2.20;;
16760;SDS011;8498;52.516;13.790;2024-03-25T04:31:29;4.40;;;2.90;;
16760;SDS011;8498;52.516;13.790;2024-03-25T04:36:50;3.67;;;2.90;;
16760;SDS011;8498;52.516;13.790;2024-03-25T04:42:11;3.80;;;2.43;;
16760;SDS011;8498;52.516;13.790;2024-03-25T04:47:33;5.60;;;3.13;;
16760;SDS011;8498;52.516;13.790;2024-03-25T04:52:54;2.57;;;2.30;;
16760;SDS011;8498;52.516;13.790;2024-03-25T04:58:15;5.60;;;3.00;;
16760;SDS011;8498;52.516;13.790;2024-03-25T05:03:37;5.63;;;3.07;;
16760;SDS011;8498;52.516;13.790;2024-03-25T05:08:58;4.37;;;2.80;;
16760;SDS011;8498;52.516;13.790;2024-03-25T05:14:19;4.30;;;2.70;;
16760;SDS011;8498;52.516;13.790;2024-03-25T05:19:40;5.17;;;2.60;;
16760;SDS011;8498;52.516;13.790;2024-03-25T05:25:01;7.43;;;2.57;;
16760;SDS011;8498;52.516;13.790;2024-03-25T05:30:23;8.70;;;2.70;;
16760;SDS011;8498;52.516;13.790;2024-03-25T05:35:44;4.33;;;2.60;;
16760;SDS011;8498;52.516;13.790;2024-03-25T05:41:05;3.40;;;2.53;;
16760;SDS011;8498;52.516;13.790;2024-03-25T05:46:26;3.97;;;2.67;;
16760;SDS011;8498;52.516;13.790;2024-03-25T05:51:48;8.27;;;3.30;;
16760;SDS011;8498;52.516;13.790;2024-03-25T05:57:09;5.63;;;3.00;;
16760;SDS011;8498;52.516;13.790;2024-03-25T06:02:30;6.67;;;3.53;;
16760;SDS011;8498;52.516;13.790;2024-03-25T06:07:51;7.80;;;3.47;;
16760;SDS011;8498;52.516;13.790;2024-03-25T06:13:12;4.30;;;3.00;;
16760;SDS011;8498;52.516;13.790;2024-03-25T06:18:33;3.37;;;2.80;;
16760;SDS011;8498;52.516;13.790;2024-03-25T06:23:54;3.90;;;2.30;;
16760;SDS011;8498;52.516;13.790;2024-03-25T06:29:15;4.97;;;2.57;;
16760;SDS011;8498;52.516;13.790;2024-03-25T06:34:37;5.63;;;3.03;;
16760;SDS011;8498;52.516;13.790;2024-03-25T06:39:58;4.07;;;2.63;;
16760;SDS011;8498;52.516;13.790;2024-03-25T06:45:22;3.33;;;2.73;;
16760;SDS011;8498;52.516;13.790;2024-03-25T06:50:53;6.77;;;2.60;;
16760;SDS011;8498;52.516;13.790;2024-03-25T06:56:16;2.87;;;2.20;;
16760;SDS011;8498;52.516;13.790;2024-03-25T07:01:37;4.47;;;2.10;;
16760;SDS011;8498;52.516;13.790;2024-03-25T07:06:58;5.00;;;2.40;;
16760;SDS011;8498;52.516;13.790;2024-03-25T07:12:19;4.27;;;2.83;;
16760;SDS011;8498;52.516;13.790;2024-03-25T07:17:41;3.33;;;2.73;;
16760;SDS011;8498;52.516;13.790;2024-03-25T07:23:02;4.63;;;2.90;;
16760;SDS011;8498;52.516;13.790;2024-03-25T07:28:24;4.33;;;2.90;;
16760;SDS011;8498;52.516;13.790;2024-03-25T07:33:45;4.47;;;2.80;;
16760;SDS011;8498;52.516;13.790;2024-03-25T07:39:06;7.13;;;3.20;;
16760;SDS011;8498;52.516;13.790;2024-03-25T07:44:31;3.63;;;2.30;;
16760;SDS011;8498;52.516;13.790;2024-03-25T07:49:53;6.40;;;2.47;;
16760;SDS011;8498;52.516;13.790;2024-03-25T07:55:15;3.47;;;2.40;;
16760;SDS011;8498;52.516;13.790;2024-03-25T08:00:36;6.83;;;2.50;;
16760;SDS011;8498;52.516;13.790;2024-03-25T08:05:57;5.20;;;2.80;;
16760;SDS011;8498;52.516;13.790;2024-03-25T08:11:18;4.07;;;2.50;;
16760;SDS011;8498;52.516;13.790;2024-03-25T08:16:40;5.80;;;2.33;;
16760;SDS011;8498;52.516;13.790;2024-03-25T08:22:01;2.30;;;2.10;;
16760;SDS011;8498;52.516;13.790;2024-03-25T08:27:22;5.50;;;2.40;;
16760;SDS011;8498;52.516;13.790;2024-03-25T08:32:43;2.93;;;1.90;;
16760;SDS011;8498;52.516;13.790;2024-03-25T08:38:04;1.97;;;1.70;;
16760;SDS011;8498;52.516;13.790;2024-03-25T08:43:26;2.80;;;1.90;;
16760;SDS011;8498;52.516;13.790;2024-03-25T08:48:47;2.20;;;2.00;;
16760;SDS011;8498;52.516;13.790;2024-03-25T08:54:08;3.00;;;2.00;;
16760;SDS011;8498;52.516;13.790;2024-03-25T08:59:29;2.43;;;2.10;;
16760;SDS011;8498;52.516;13.790;2024-03-25T09:04:50;6.20;;;3.10;;
16760;SDS011;8498;52.516;13.790;2024-03-25T09:10:12;6.07;;;3.03;;
16760;SDS011;8498;52.516;13.790;2024-03-25T09:15:52;5.77;;;3.17;;
16760;SDS011;8498;52.516;13.790;2024-03-25T09:21:15;7.27;;;2.87;;
16760;SDS011;8498;52.516;13.790;2024-03-25T09:26:36;3.60;;;2.90;;
16760;SDS011;8498;52.516;13.790;2024-03-25T09:31:58;3.80;;;2.50;;
16760;SDS011;8498;52.516;13.790;2024-03-25T09:37:19;4.43;;;2.73;;
16760;SDS011;8498;52.516;13.790;2024-03-25T09:42:52;3.47;;;2.77;;
16760;SDS011;8498;52.516;13.790;2024-03-25T09:48:18;3.60;;;2.63;;
16760;SDS011;8498;52.516;13.790;2024-03-25T09:53:42;17.50;;;6.30;;
16760;SDS011;8498;52.516;13.790;2024-03-25T09:59:03;13.30;;;4.73;;
16760;SDS011;8498;52.516;13.790;2024-03-25T10:04:25;5.33;;;2.80;;
16760;SDS011;8498;52.516;13.790;2024-03-25T10:09:46;3.03;;;2.53;;
16760;SDS011;8498;52.516;13.790;2024-03-25T10:15:07;4.27;;;2.67;;
16760;SDS011;8498;52.516;13.790;2024-03-25T10:20:28;2.90;;;2.70;;
16760;SDS011;8498;52.516;13.790;2024-03-25T10:25:51;7.27;;;3.97;;
16760;SDS011;8498;52.516;13.790;2024-03-25T10:31:17;3.63;;;1.90;;
16760;SDS011;8498;52.516;13.790;2024-03-25T10:36:38;6.27;;;1.87;;
16760;SDS011;8498;52.516;13.790;2024-03-25T10:41:59;3.40;;;2.10;;
16760;SDS011;8498;52.516;13.790;2024-03-25T10:47:25;4.07;;;2.03;;
16760;SDS011;8498;52.516;13.790;2024-03-25T10:52:51;7.27;;;2.53;;
16760;SDS011;8498;52.516;13.790;2024-03-25T10:58:15;3.83;;;2.53;;
16760;SDS011;8498;52.516;13.790;2024-03-25T11:03:37;4.00;;;2.50;;
16760;SDS011;8498;52.516;13.790;2024-03-25T11:08:59;3.10;;;2.10;;
16760;SDS011;8498;52.516;13.790;2024-03-25T11:14:24;4.77;;;2.50;;
16760;SDS011;8498;52.516;13.790;2024-03-25T11:19:46;6.33;;;2.63;;
16760;SDS011;8498;52.516;13.790;2024-03-25T11:25:08;6.13;;;2.53;;
16760;SDS011;8498;52.516;13.790;2024-03-25T11:30:30;4.40;;;1.83;;
16760;SDS011;8498;52.516;13.790;2024-03-25T11:35:53;4.73;;;2.37;;
16760;SDS011;8498;52.516;13.790;2024-03-25T11:41:14;1.67;;;1.50;;
16760;SDS011;8498;52.516;13.790;2024-03-25T11:46:38;1.67;;;1.33;;
16760;SDS011;8498;52.516;13.790;2024-03-25T11:52:01;1.80;;;1.23;;
16760;SDS011;8498;52.516;13.790;2024-03-25T11:57:25;2.30;;;1.77;;
16760;SDS011;8498;52.516;13.790;2024-03-25T12:02:46;1.30;;;1.20;;
16760;SDS011;8498;52.516;13.790;2024-03-25T12:08:11;1.47;;;1.27;;
16760;SDS011;8498;52.516;13.790;2024-03-25T12:13:33;3.87;;;1.60;;
16760;SDS011;8498;52.516;13.790;2024-03-25T12:18:54;3.27;;;2.20;;
16760;SDS011;8498;52.516;13.790;2024-03-25T12:24:16;4.10;;;2.37;;
16760;SDS011;8498;52.516;13.790;2024-03-25T12:29:39;4.60;;;2.20;;
16760;SDS011;8498;52.516;13.790;2024-03-25T12:35:01;5.07;;;2.37;;
16760;SDS011;8498;52.516;13.790;2024-03-25T12:40:26;6.33;;;2.57;;
16760;SDS011;8498;52.516;13.790;2024-03-25T12:45:48;5.37;;;2.23;;
16760;SDS011;8498;52.516;13.790;2024-03-25T12:51:12;3.57;;;2.23;;
16760;SDS011;8498;52.516;13.790;2024-03-25T12:56:35;4.40;;;2.27;;
16760;SDS011;8498;52.516;13.790;2024-03-25T13:01:56;3.77;;;2.23;;
16760;SDS011;8498;52.516;13.790;2024-03-25T13:07:17;2.57;;;2.20;;
16760;SDS011;8498;52.516;13.790;2024-03-25T13:12:38;2.03;;;1.83;;
16760;SDS011;8498;52.516;13.790;2024-03-25T13:18:01;1.80;;;1.23;;
16760;SDS011;8498;52.516;13.790;2024-03-25T13:23:22;1.87;;;1.50;;
16760;SDS011;8498;52.516;13.790;2024-03-25T13:28:43;1.90;;;1.50;;
16760;SDS011;8498;52.516;13.790;2024-03-25T13:34:04;1.40;;;1.30;;
16760;SDS011;8498;52.516;13.790;2024-03-25T13:39:25;1.50;;;1.40;;
16760;SDS011;8498;52.516;13.790;2024-03-25T13:44:46;1.87;;;1.47;;
16760;SDS011;8498;52.516;13.790;2024-03-25T13:50:07;2.43;;;1.53;;
16760;SDS011;8498;52.516;13.790;2024-03-25T13:55:29;1.33;;;1.23;;
16760;SDS011;8498;52.516;13.790;2024-03-25T14:00:50;1.57;;;1.37;;
16760;SDS011;8498;52.516;13.790;2024-03-25T14:06:12;1.80;;;1.37;;
16760;SDS011;8498;52.516;13.790;2024-03-25T14:11:33;1.50;;;1.40;;
16760;SDS011;8498;52.516;13.790;2024-03-25T14:16:54;1.67;;;1.50;;
16760;SDS011;8498;52.516;13.790;2024-03-25T14:22:15;1.63;;;1.50;;
16760;SDS011;8498;52.516;13.790;2024-03-25T14:27:37;2.10;;;1.67;;
16760;SDS011;8498;52.516;13.790;2024-03-25T14:32:58;1.97;;;1.70;;
16760;SDS011;8498;52.516;13.790;2024-03-25T14:38:20;2.57;;;1.60;;
16760;SDS011;8498;52.516;13.790;2024-03-25T14:43:41;1.50;;;1.40;;
16760;SDS011;8498;52.516;13.790;2024-03-25T14:49:03;1.23;;;1.17;;
16760;SDS011;8498;52.516;13.790;2024-03-25T14:54:32;3.67;;;1.50;;
16760;SDS011;8498;52.516;13.790;2024-03-25T14:59:58;1.10;;;1.10;;
16760;SDS011;8498;52.516;13.790;2024-03-25T15:05:19;1.10;;;1.10;;
16760;SDS011;8498;52.516;13.790;2024-03-25T15:10:41;2.03;;;1.50;;
16760;SDS011;8498;52.516;13.790;2024-03-25T15:16:03;1.53;;;1.33;;
16760;SDS011;8498;52.516;13.790;2024-03-25T15:21:25;1.40;;;1.30;;
16760;SDS011;8498;52.516;13.790;2024-03-25T15:26:46;3.23;;;1.73;;
16760;SDS011;8498;52.516;13.790;2024-03-25T15:32:08;1.33;;;1.23;;
16760;SDS011;8498;52.516;13.790;2024-03-25T15:37:29;4.10;;;1.60;;
16760;SDS011;8498;52.516;13.790;2024-03-25T15:42:50;3.60;;;1.40;;
16760;SDS011;8498;52.516;13.790;2024-03-25T15:48:11;5.60;;;3.00;;
16760;SDS011;8498;52.516;13.790;2024-03-25T15:53:32;4.80;;;2.60;;
16760;SDS011;8498;52.516;13.790;2024-03-25T15:58:53;2.80;;;1.90;;
16760;SDS011;8498;52.516;13.790;2024-03-25T16:04:16;2.53;;;1.60;;
16760;SDS011;8498;52.516;13.790;2024-03-25T16:09:37;4.40;;;1.70;;
16760;SDS011;8498;52.516;13.790;2024-03-25T16:15:04;1.87;;;1.30;;
16760;SDS011;8498;52.516;13.790;2024-03-25T16:20:29;1.83;;;1.67;;
16760;SDS011;8498;52.516;13.790;2024-03-25T16:25:51;1.63;;;1.47;;
16760;SDS011;8498;52.516;13.790;2024-03-25T16:31:12;2.37;;;1.60;;
16760;SDS011;8498;52.516;13.790;2024-03-25T16:36:33;3.10;;;1.67;;
16760;SDS011;8498;52.516;13.790;2024-03-25T16:41:55;2.03;;;1.50;;
16760;SDS011;8498;52.516;13.790;2024-03-25T16:47:16;1.63;;;1.53;;
16760;SDS011;8498;52.516;13.790;2024-03-25T16:52:37;6.60;;;2.37;;
16760;SDS011;8498;52.516;13.790;2024-03-25T16:57:58;3.47;;;1.87;;
16760;SDS011;8498;52.516;13.790;2024-03-25T17:03:19;3.03;;;1.33;;
16760;SDS011;8498;52.516;13.790;2024-03-25T17:08:40;2.80;;;1.43;;
16760;SDS011;8498;52.516;13.790;2024-03-25T17:14:02;1.57;;;1.47;;
16760;SDS011;8498;52.516;13.790;2024-03-25T17:19:24;4.40;;;1.60;;
16760;SDS011;8498;52.516;13.790;2024-03-25T17:24:45;2.50;;;2.30;;
16760;SDS011;8498;52.516;13.790;2024-03-25T17:30:06;3.90;;;2.40;;
16760;SDS011;8498;52.516;13.790;2024-03-25T17:35:27;4.73;;;3.57;;
16760;SDS011;8498;52.516;13.790;2024-03-25T17:40:49;6.70;;;4.43;;
16760;SDS011;8498;52.516;13.790;2024-03-25T17:46:10;5.40;;;3.37;;
16760;SDS011;8498;52.516;13.790;2024-03-25T17:51:32;3.77;;;2.57;;
16760;SDS011;8498;52.516;13.790;2024-03-25T17:56:54;4.80;;;2.50;;
16760;SDS011;8498;52.516;13.790;2024-03-25T18:02:15;3.57;;;2.63;;
16760;SDS011;8498;52.516;13.790;2024-03-25T18:07:38;3.63;;;2.57;;
16760;SDS011;8498;52.516;13.790;2024-03-25T18:13:03;8.23;;;4.03;;
16760;SDS011;8498;52.516;13.790;2024-03-25T18:18:26;7.37;;;3.77;;
16760;SDS011;8498;52.516;13.790;2024-03-25T18:23:47;10.53;;;5.53;;
16760;SDS011;8498;52.516;13.790;2024-03-25T18:29:08;5.40;;;4.37;;
16760;SDS011;8498;52.516;13.790;2024-03-25T18:34:30;9.03;;;4.13;;
16760;SDS011;8498;52.516;13.790;2024-03-25T18:39:51;7.17;;;4.17;;
16760;SDS011;8498;52.516;13.790;2024-03-25T18:45:12;7.73;;;4.57;;
16760;SDS011;8498;52.516;13.790;2024-03-25T18:50:34;6.87;;;3.77;;
16760;SDS011;8498;52.516;13.790;2024-03-25T18:55:55;5.10;;;3.03;;
16760;SDS011;8498;52.516;13.790;2024-03-25T19:01:16;3.93;;;2.73;;
16760;SDS011;8498;52.516;13.790;2024-03-25T19:06:38;4.03;;;2.23;;
16760;SDS011;8498;52.516;13.790;2024-03-25T19:11:59;7.07;;;3.20;;
16760;SDS011;8498;52.516;13.790;2024-03-25T19:17:21;4.17;;;2.70;;
16760;SDS011;8498;52.516;13.790;2024-03-25T19:22:42;7.50;;;2.37;;
16760;SDS011;8498;52.516;13.790;2024-03-25T19:28:03;6.57;;;2.80;;
16760;SDS011;8498;52.516;13.790;2024-03-25T19:33:24;5.27;;;3.00;;
16760;SDS011;8498;52.516;13.790;2024-03-25T19:38:45;6.80;;;2.77;;
16760;SDS011;8498;52.516;13.790;2024-03-25T19:44:07;7.37;;;2.70;;
16760;SDS011;8498;52.516;13.790;2024-03-25T19:49:28;3.43;;;2.57;;
16760;SDS011;8498;52.516;13.790;2024-03-25T19:54:52;4.13;;;2.90;;
16760;SDS011;8498;52.516;13.790;2024-03-25T20:00:13;3.33;;;2.70;;
16760;SDS011;8498;52.516;13.790;2024-03-25T20:05:34;7.83;;;2.83;;
16760;SDS011;8498;52.516;13.790;2024-03-25T20:10:56;4.90;;;2.90;;
16760;SDS011;8498;52.516;13.790;2024-03-25T20:16:18;8.97;;;3.50;;
16760;SDS011;8498;52.516;13.790;2024-03-25T20:21:41;8.37;;;2.53;;
16760;SDS011;8498;52.516;13.790;2024-03-25T20:27:04;2.60;;;2.30;;
16760;SDS011;8498;52.516;13.790;2024-03-25T20:32:26;2.63;;;2.30;;
16760;SDS011;8498;52.516;13.790;2024-03-25T20:37:47;3.07;;;2.33;;
16760;SDS011;8498;52.516;13.790;2024-03-25T20:43:08;4.57;;;2.73;;
16760;SDS011;8498;52.516;13.790;2024-03-25T20:48:29;5.77;;;2.87;;
16760;SDS011;8498;52.516;13.790;2024-03-25T20:53:50;7.07;;;3.60;;
16760;SDS011;8498;52.516;13.790;2024-03-25T20:59:11;5.47;;;3.60;;
16760;SDS011;8498;52.516;13.790;2024-03-25T21:04:32;6.87;;;3.33;;
16760;SDS011;8498;52.516;13.790;2024-03-25T21:09:53;9.43;;;3.50;;
16760;SDS011;8498;52.516;13.790;2024-03-25T21:15:14;3.70;;;2.97;;
16760;SDS011;8498;52.516;13.790;2024-03-25T21:20:36;5.50;;;3.77;;
16760;SDS011;8498;52.516;13.790;2024-03-25T21:25:57;9.17;;;4.70;;
16760;SDS011;8498;52.516;13.790;2024-03-25T21:31:18;9.27;;;4.80;;
16760;SDS011;8498;52.516;13.790;2024-03-25T21:36:39;9.77;;;4.70;;
16760;SDS011;8498;52.516;13.790;2024-03-25T21:42:01;8.57;;;4.70;;
16760;SDS011;8498;52.516;13.790;2024-03-25T21:47:22;5.53;;;4.17;;
16760;SDS011;8498;52.516;13.790;2024-03-25T21:52:43;5.33;;;3.93;;
16760;SDS011;8498;52.516;13.790;2024-03-25T21:58:04;4.47;;;3.43;;
16760;SDS011;8498;52.516;13.790;2024-03-25T22:03:25;6.67;;;3.50;;
16760;SDS011;8498;52.516;13.790;2024-03-25T22:08:46;10.10;;;3.97;;
16760;SDS011;8498;52.516;13.790;2024-03-25T22:14:09;6.80;;;3.40;;
16760;SDS011;8498;52.516;13.790;2024-03-25T22:19:31;7.33;;;3.60;;
16760;SDS011;8498;52.516;13.790;2024-03-25T22:24:52;3.43;;;3.10;;
16760;SDS011;8498;52.516;13.790;2024-03-25T22:30:13;6.47;;;3.33;;
16760;SDS011;8498;52.516;13.790;2024-03-25T22:35:34;5.80;;;3.30;;
16760;SDS011;8498;52.516;13.790;2024-03-25T22:40:55;6.07;;;3.30;;
16760;SDS011;8498;52.516;13.790;2024-03-25T22:46:20;5.63;;;3.17;;
16760;SDS011;8498;52.516;13.790;2024-03-25T22:51:42;5.50;;;3.30;;
16760;SDS011;8498;52.516;13.790;2024-03-25T22:57:03;4.07;;;3.13;;
16760;SDS011;8498;52.516;13.790;2024-03-25T23:02:24;3.90;;;2.53;;
16760;SDS011;8498;52.516;13.790;2024-03-25T23:07:45;4.40;;;2.63;;
16760;SDS011;8498;52.516;13.790;2024-03-25T23:13:06;8.17;;;3.57;;
16760;SDS011;8498;52.516;13.790;2024-03-25T23:18:27;4.53;;;2.93;;
16760;SDS011;8498;52.516;13.790;2024-03-25T23:23:49;4.50;;;3.20;;
16760;SDS011;8498;52.516;13.790;2024-03-25T23:29:10;4.80;;;3.37;;
16760;SDS011;8498;52.516;13.790;2024-03-25T23:34:33;4.30;;;3.43;;
16760;SDS011;8498;52.516;13.790;2024-03-25T23:39:54;6.73;;;3.47;;
16760;SDS011;8498;52.516;13.790;2024-03-25T23:45:16;4.20;;;3.37;;
16760;SDS011;8498;52.516;13.790;2024-03-25T23:50:37;5.47;;;3.73;;
16760;SDS011;8498;52.516;13.790;2024-03-25T23:55:58;4.13;;;3.27;;
